createdAt,value
2023-01-27T00:01:09.019Z,100521.66
2023-01-27T00:03:37.712Z,100512.59
2023-01-27T00:06:06.682Z,100501.25
2023-01-27T00:08:34.522Z,100507.69
2023-01-27T00:11:20.794Z,100496.88
2023-01-27T00:13:48.474Z,100497.97
2023-01-27T00:16:16.020Z,100499.53
2023-01-27T00:18:43.755Z,100501.38
2023-01-27T00:21:29.959Z,100499.81
2023-01-27T00:24:15.882Z,100500.38
2023-01-27T00:26:43.311Z,100496.72
2023-01-27T00:29:10.648Z,100495.91
2023-01-27T00:31:56.908Z,100498.91
2023-01-27T00:34:24.299Z,100489.56
2023-01-27T00:36:51.681Z,100496.66
2023-01-27T00:39:19.106Z,100498.56
2023-01-27T00:41:46.472Z,100488.97
2023-01-27T00:44:14.084Z,100502.19
2023-01-27T00:46:43.007Z,100498.78
2023-01-27T00:49:13.456Z,100499.50
2023-01-27T00:51:41.397Z,100498.03
2023-01-27T00:54:09.344Z,100498.47
2023-01-27T00:56:37.443Z,100508.59
2023-01-27T00:59:05.299Z,100502.53
2023-01-27T01:01:34.154Z,100499.22
2023-01-27T01:04:01.768Z,100502.56
2023-01-27T01:06:29.375Z,100498.84
2023-01-27T01:08:58.112Z,100513.75
2023-01-27T01:11:26.535Z,100511.31
2023-01-27T01:13:56.295Z,100516.47
2023-01-27T01:16:25.145Z,100506.88
2023-01-27T01:18:52.944Z,100518.25
2023-01-27T01:21:21.448Z,100517.28
2023-01-27T01:23:48.922Z,100524.38
2023-01-27T01:26:19.852Z,100516.06
2023-01-27T01:28:48.303Z,100519.41
2023-01-27T01:31:18.801Z,100511.84
2023-01-27T01:33:47.724Z,100512.19
2023-01-27T01:36:18.342Z,100510.19
2023-01-27T01:38:46.710Z,100511.75
2023-01-27T01:41:33.002Z,100518.72
2023-01-27T01:44:19.963Z,100514.16
2023-01-27T01:46:47.477Z,100511.41
2023-01-27T01:49:18.179Z,100515.88
2023-01-27T01:51:53.802Z,100511.69
2023-01-27T01:54:25.898Z,100516.56
2023-01-27T01:57:10.341Z,100512.19
2023-01-27T02:00:02.097Z,100507.16
2023-01-27T02:02:31.496Z,100510.75
2023-01-27T02:05:06.478Z,100504.69
2023-01-27T02:07:43.378Z,100512.38
2023-01-27T02:10:12.710Z,100516.81
2023-01-27T02:12:40.401Z,100518.31
2023-01-27T02:15:10.166Z,100500.97
2023-01-27T02:17:38.014Z,100512.50
2023-01-27T02:20:09.440Z,100512.47
2023-01-27T02:22:59.439Z,100511.03
2023-01-27T02:25:35.497Z,100512.34
2023-01-27T02:28:05.624Z,100514.47
2023-01-27T02:30:33.858Z,100500.22
2023-01-27T02:33:01.575Z,100510.84
2023-01-27T02:35:37.768Z,100504.59
2023-01-27T02:38:10.006Z,100510.94
2023-01-27T02:40:38.010Z,100505.34
2023-01-27T02:43:06.125Z,100510.78
2023-01-27T02:45:33.710Z,100513.56
2023-01-27T02:48:01.262Z,100503.22
2023-01-27T02:50:29.042Z,100506.56
2023-01-27T02:52:56.815Z,100506.38
2023-01-27T02:55:24.302Z,100496.31
2023-01-27T02:57:52.475Z,100490.69
2023-01-27T03:00:38.392Z,100504.97
2023-01-27T03:03:06.388Z,100502.75
2023-01-27T03:05:33.956Z,100499.00
2023-01-27T03:08:01.619Z,100506.13
2023-01-27T03:10:29.238Z,100502.09
2023-01-27T03:12:58.811Z,100497.28
2023-01-27T03:15:44.849Z,100498.16
2023-01-27T03:18:13.564Z,100507.59
2023-01-27T03:20:48.786Z,100495.63
2023-01-27T03:23:19.089Z,100483.94
2023-01-27T03:25:51.624Z,100489.13
2023-01-27T03:28:19.481Z,100499.88
2023-01-27T03:31:19.741Z,100489.97
2023-01-27T03:33:53.807Z,100489.81
2023-01-27T03:37:06.271Z,100486.16
2023-01-27T03:39:53.971Z,100492.25
2023-01-27T03:42:40.138Z,100493.34
2023-01-27T03:45:26.486Z,100494.56
2023-01-27T03:47:54.054Z,100480.56
2023-01-27T03:50:37.636Z,100489.56
2023-01-27T03:53:05.676Z,100497.13
2023-01-27T03:55:34.791Z,100484.16
2023-01-27T03:58:18.548Z,100486.25
2023-01-27T04:00:47.815Z,100489.47
2023-01-27T04:03:33.854Z,100482.44
2023-01-27T04:06:22.850Z,100503.06
2023-01-27T04:08:50.445Z,100489.41
2023-01-27T04:11:36.801Z,100488.66
2023-01-27T04:14:05.769Z,100493.53
2023-01-27T04:16:36.042Z,100483.47
2023-01-27T04:19:08.508Z,100490.66
2023-01-27T04:21:36.153Z,100495.59
2023-01-27T04:24:04.410Z,100496.41
2023-01-27T04:26:34.651Z,100490.72
2023-01-27T04:29:02.701Z,100492.22
2023-01-27T04:31:32.791Z,100491.69
2023-01-27T04:34:00.716Z,100498.75
2023-01-27T04:36:28.564Z,100490.22
2023-01-27T04:38:56.103Z,100490.94
2023-01-27T04:41:23.579Z,100501.44
2023-01-27T04:43:51.118Z,100500.56
2023-01-27T04:46:18.796Z,100495.50
2023-01-27T04:48:46.211Z,100498.44
2023-01-27T04:51:13.743Z,100506.38
2023-01-27T04:53:41.232Z,100504.56
2023-01-27T04:56:21.387Z,100496.34
2023-01-27T04:58:49.539Z,100500.59
2023-01-27T05:01:17.342Z,100499.88
2023-01-27T05:03:44.964Z,100501.88
2023-01-27T05:06:13.377Z,100511.78
2023-01-27T05:08:41.117Z,100499.53
2023-01-27T05:11:09.259Z,100502.00
2023-01-27T05:13:37.641Z,100509.78
2023-01-27T05:16:27.725Z,100516.28
2023-01-27T05:18:56.363Z,100505.38
2023-01-27T05:21:31.143Z,100507.13
2023-01-27T05:23:58.713Z,100521.56
2023-01-27T05:26:27.925Z,100526.97
2023-01-27T05:28:58.239Z,100518.50
2023-01-27T05:31:28.710Z,100510.16
2023-01-27T05:33:59.093Z,100529.75
2023-01-27T05:36:27.034Z,100533.34
2023-01-27T05:38:55.393Z,100532.25
2023-01-27T05:41:23.154Z,100539.91
2023-01-27T05:43:56.004Z,100528.41
2023-01-27T05:46:26.359Z,100525.19
2023-01-27T05:48:56.120Z,100537.19
2023-01-27T05:51:25.774Z,100534.84
2023-01-27T05:53:55.192Z,100537.78
2023-01-27T05:56:23.339Z,100539.47
2023-01-27T05:58:50.957Z,100554.03
2023-01-27T06:01:24.095Z,100553.63
2023-01-27T06:03:51.720Z,100548.28
2023-01-27T06:06:21.850Z,100561.66
2023-01-27T06:08:49.720Z,100548.06
2023-01-27T06:11:20.027Z,100565.31
2023-01-27T06:13:48.540Z,100558.81
2023-01-27T06:16:18.361Z,100557.34
2023-01-27T06:18:46.990Z,100547.56
2023-01-27T06:21:16.318Z,100559.19
2023-01-27T06:23:43.768Z,100559.69
2023-01-27T06:26:16.370Z,100550.81
2023-01-27T06:28:44.679Z,100566.47
2023-01-27T06:31:15.119Z,100564.09
2023-01-27T06:33:43.206Z,100567.47
2023-01-27T06:36:13.291Z,100568.56
2023-01-27T06:38:41.753Z,100566.75
2023-01-27T06:41:12.031Z,100567.47
2023-01-27T06:43:44.919Z,100572.72
2023-01-27T06:46:24.377Z,100574.88
2023-01-27T06:48:51.987Z,100572.06
2023-01-27T06:51:19.628Z,100579.97
2023-01-27T06:53:47.083Z,100576.75
2023-01-27T06:56:16.466Z,100578.31
2023-01-27T06:58:44.964Z,100572.28
2023-01-27T07:01:12.519Z,100580.41
2023-01-27T07:03:42.910Z,100575.31
2023-01-27T07:06:11.232Z,100578.00
2023-01-27T07:08:38.795Z,100587.47
2023-01-27T07:11:06.516Z,100589.81
2023-01-27T07:13:34.096Z,100586.03
2023-01-27T07:16:01.853Z,100578.28
2023-01-27T07:18:29.790Z,100578.38
2023-01-27T07:20:57.465Z,100587.44
2023-01-27T07:23:27.712Z,100593.47
2023-01-27T07:25:55.553Z,100597.03
2023-01-27T07:28:26.135Z,100595.06
2023-01-27T07:30:54.082Z,100602.19
2023-01-27T07:33:21.688Z,100600.00
2023-01-27T07:35:50.085Z,100599.19
2023-01-27T07:38:20.135Z,100601.78
2023-01-27T07:40:47.773Z,100595.66
2023-01-27T07:43:15.473Z,100606.19
2023-01-27T07:45:49.299Z,100609.88
2023-01-27T07:48:19.682Z,100612.38
2023-01-27T08:00:42.363Z,100612.75
2023-01-27T08:46:30.360Z,100630.53
2023-01-27T08:49:49.492Z,100629.00
2023-01-27T08:52:56.353Z,100635.28
2023-01-27T08:56:29.897Z,100639.38
2023-01-27T09:09:16.009Z,100632.28
2023-01-27T09:12:10.795Z,100640.50
2023-01-27T09:14:42.405Z,100638.22
2023-01-27T09:17:11.707Z,100632.41
2023-01-27T09:19:40.480Z,100638.31
2023-01-27T09:22:15.076Z,100638.63
2023-01-27T09:24:48.801Z,100640.69
2023-01-27T09:28:36.302Z,100653.00
2023-01-27T09:31:04.941Z,100650.88
2023-01-27T09:33:39.829Z,100646.06
2023-01-27T09:36:18.709Z,100655.13
2023-01-27T09:38:56.543Z,100657.16
2023-01-27T09:42:05.060Z,100658.25
2023-01-27T09:56:03.109Z,100671.34
2023-01-27T09:58:42.669Z,100672.09
2023-01-27T10:01:24.674Z,100672.13
2023-01-27T10:04:20.221Z,100668.66
2023-01-27T10:07:26.761Z,100669.13
2023-01-27T10:09:57.122Z,100671.13
2023-01-27T10:12:42.310Z,100675.44
2023-01-27T10:15:34.608Z,100667.44
2023-01-27T10:18:40.748Z,100674.34
2023-01-27T10:21:21.772Z,100674.84
2023-01-27T10:24:12.459Z,100665.22
2023-01-27T10:26:52.199Z,100650.38
2023-01-27T10:29:44.422Z,100659.94
2023-01-27T10:32:35.566Z,100669.00
2023-01-27T10:35:46.023Z,100660.94
2023-01-27T10:39:08.370Z,100661.75
2023-01-27T10:42:19.829Z,100652.25
2023-01-27T10:45:04.028Z,100659.97
2023-01-27T10:47:47.565Z,100657.41
2023-01-27T10:55:28.236Z,100648.84
2023-01-27T10:58:06.363Z,100650.75
2023-01-27T11:05:42.540Z,100636.31
2023-01-27T11:27:31.968Z,100628.06
2023-01-27T11:30:29.917Z,100636.75
2023-01-27T11:36:49.947Z,100622.16
2023-01-27T11:39:23.458Z,100629.25
2023-01-27T11:41:56.264Z,100611.72
2023-01-27T11:44:30.308Z,100613.59
2023-01-27T11:47:23.957Z,100614.78
2023-01-27T11:50:00.800Z,100612.47
2023-01-27T11:52:32.988Z,100593.00
2023-01-27T11:55:51.304Z,100606.13
2023-01-27T11:59:59.789Z,100606.19
2023-01-27T12:02:50.243Z,100590.25
2023-01-27T12:06:31.569Z,100589.38
2023-01-27T12:09:06.180Z,100587.75
2023-01-27T12:11:33.964Z,100586.91
2023-01-27T12:14:04.130Z,100577.44
2023-01-27T12:17:52.347Z,100586.88
2023-01-27T12:21:56.854Z,100585.56
2023-01-27T12:24:58.180Z,100562.25
2023-01-27T12:28:49.987Z,100557.88
2023-01-27T12:32:27.456Z,100553.00
2023-01-27T12:35:09.811Z,100564.59
2023-01-27T12:38:03.149Z,100544.44
2023-01-27T12:58:42.134Z,100547.28
2023-01-27T13:09:25.745Z,100526.31
2023-01-27T13:41:53.025Z,100524.16
2023-01-27T13:45:41.666Z,100516.16
2023-01-27T14:16:11.007Z,100520.38
2023-01-27T14:19:17.046Z,100523.19
2023-01-27T14:22:29.657Z,100529.50
2023-01-27T14:25:23.660Z,100531.25
2023-01-27T14:28:45.263Z,100530.94
2023-01-27T14:32:04.754Z,100525.72
2023-01-27T14:34:50.641Z,100543.38
2023-01-27T14:37:29.345Z,100540.00
2023-01-27T14:40:08.795Z,100546.28
2023-01-27T14:43:02.504Z,100540.97
2023-01-27T14:45:40.114Z,100540.94
2023-01-27T14:48:28.532Z,100545.38
2023-01-27T14:51:06.962Z,100540.00
2023-01-27T14:53:53.549Z,100545.59
2023-01-27T14:57:05.884Z,100548.16
2023-01-27T14:59:39.306Z,100538.78
2023-01-27T15:02:40.671Z,100545.00
2023-01-27T15:05:23.736Z,100543.16
2023-01-27T15:08:05.627Z,100543.91
2023-01-27T15:10:34.197Z,100544.44
2023-01-27T15:13:48.768Z,100544.69
2023-01-27T15:17:23.835Z,100554.22
2023-01-27T15:27:21.181Z,100544.13
2023-01-27T15:29:49.189Z,100546.63
2023-01-27T15:32:19.006Z,100560.97
2023-01-27T15:34:53.001Z,100555.53
2023-01-27T15:37:28.467Z,100547.50
2023-01-27T15:40:06.546Z,100562.53
2023-01-27T15:42:52.704Z,100556.19
2023-01-27T15:45:41.686Z,100546.47
2023-01-27T15:48:20.888Z,100559.34
2023-01-27T15:51:09.764Z,100562.75
2023-01-27T16:06:32.050Z,100568.38
2023-01-27T16:09:09.071Z,100564.66
2023-01-27T16:11:42.019Z,100578.00
2023-01-27T16:14:14.375Z,100585.84
2023-01-27T16:16:50.599Z,100588.56
2023-01-27T16:19:30.484Z,100590.25
2023-01-27T16:22:13.122Z,100590.56
2023-01-27T16:24:48.604Z,100594.47
2023-01-27T16:27:28.172Z,100597.28
2023-01-27T16:30:13.071Z,100580.84
2023-01-27T16:32:51.790Z,100597.63
2023-01-27T16:35:22.397Z,100598.16
2023-01-27T16:38:14.837Z,100598.16
2023-01-27T16:40:51.332Z,100615.00
2023-01-27T16:43:23.603Z,100597.75
2023-01-27T16:45:54.643Z,100598.03
2023-01-27T16:48:47.164Z,100600.22
2023-01-27T16:51:20.156Z,100620.09
2023-01-27T16:53:50.512Z,100613.81
2023-01-27T16:56:28.211Z,100620.28
2023-01-27T16:59:09.084Z,100615.19
2023-01-27T17:01:48.475Z,100613.31
2023-01-27T17:04:27.364Z,100621.25
2023-01-27T17:07:13.583Z,100622.41
2023-01-27T17:09:45.680Z,100619.06
2023-01-27T17:12:26.039Z,100618.47
2023-01-27T17:14:54.123Z,100626.94
2023-01-27T17:17:27.187Z,100619.91
2023-01-27T17:20:06.795Z,100638.50
2023-01-27T17:22:39.918Z,100634.59
2023-01-27T17:25:29.648Z,100640.25
2023-01-27T17:28:00.690Z,100635.44
2023-01-27T17:30:39.686Z,100638.31
2023-01-27T17:33:14.538Z,100654.06
2023-01-27T17:35:43.177Z,100644.53
2023-01-27T17:38:14.708Z,100646.72
2023-01-27T17:40:45.550Z,100658.75
2023-01-27T17:43:23.410Z,100657.06
2023-01-27T17:46:09.715Z,100655.75
2023-01-27T17:48:41.060Z,100662.53
2023-01-27T17:51:12.960Z,100669.97
2023-01-27T17:53:42.555Z,100669.31
2023-01-27T17:56:28.106Z,100663.16
2023-01-27T17:59:07.333Z,100669.31
2023-01-27T18:01:35.793Z,100672.03
2023-01-27T18:04:06.204Z,100676.91
2023-01-27T18:06:34.005Z,100676.25
2023-01-27T18:09:15.541Z,100685.00
2023-01-27T18:11:59.497Z,100679.13
2023-01-27T18:17:29.950Z,100688.38
2023-01-27T18:19:57.639Z,100697.38
2023-01-27T18:22:29.450Z,100698.69
2023-01-27T18:25:05.520Z,100717.22
2023-01-27T18:27:40.738Z,100708.13
2023-01-27T18:30:41.018Z,100717.59
2023-01-27T18:33:45.029Z,100703.78
2023-01-27T18:36:24.396Z,100722.00
2023-01-27T18:38:59.544Z,100723.56
2023-01-27T18:41:38.323Z,100726.16
2023-01-27T18:44:12.217Z,100730.19
2023-01-27T18:47:34.208Z,100741.91
2023-01-27T18:50:10.794Z,100746.53
2023-01-27T18:53:11.886Z,100745.81
2023-01-27T18:56:21.245Z,100736.72
2023-01-27T19:00:12.087Z,100751.66
2023-01-27T19:02:48.635Z,100730.69
2023-01-27T19:06:01.570Z,100743.63
2023-01-27T19:09:04.636Z,100757.47
2023-01-27T19:11:47.106Z,100746.53
2023-01-27T19:14:32.163Z,100752.34
2023-01-27T19:18:49.042Z,100768.94
2023-01-27T19:21:28.545Z,100756.63
2023-01-27T19:24:15.946Z,100759.78
2023-01-27T19:27:51.221Z,100752.84
2023-01-27T19:31:39.039Z,100759.91
2023-01-27T19:34:27.634Z,100771.88
2023-01-27T19:42:53.320Z,100779.53
2023-01-27T19:45:48.729Z,100771.56
2023-01-27T19:48:21.965Z,100768.09
2023-01-27T19:50:57.273Z,100775.66
2023-01-27T19:54:39.029Z,100781.19
2023-01-27T19:57:21.920Z,100776.56
2023-01-27T19:59:55.149Z,100777.53
2023-01-27T20:02:43.817Z,100780.84
2023-01-27T20:05:16.681Z,100787.41
2023-01-27T20:08:21.485Z,100792.63
2023-01-27T20:14:55.564Z,100805.53
2023-01-27T20:17:37.729Z,100802.13
2023-01-27T20:20:05.843Z,100796.53
2023-01-27T20:22:36.174Z,100800.66
2023-01-27T20:28:32.565Z,100804.22
2023-01-27T20:31:19.571Z,100798.88
2023-01-27T20:33:52.580Z,100801.44
2023-01-27T20:36:41.740Z,100803.88
2023-01-27T20:42:29.245Z,100819.19
2023-01-27T20:44:58.103Z,100826.75
2023-01-27T20:47:55.300Z,100811.22
2023-01-27T20:50:26.383Z,100808.41
2023-01-27T20:53:11.774Z,100815.44
2023-01-27T20:55:42.167Z,100824.06
2023-01-27T20:58:37.481Z,100812.59
2023-01-27T21:01:23.357Z,100811.81
2023-01-27T21:04:18.077Z,100824.16
2023-01-27T21:06:51.829Z,100824.91
2023-01-27T21:09:34.124Z,100830.16
2023-01-27T21:12:17.510Z,100829.31
2023-01-27T21:15:07.812Z,100825.28
2023-01-27T21:18:16.837Z,100821.56
2023-01-27T21:21:29.335Z,100817.72
2023-01-27T21:24:05.097Z,100825.88
2023-01-27T21:26:42.216Z,100824.75
2023-01-27T21:29:11.845Z,100835.78
2023-01-27T21:31:40.344Z,100826.09
2023-01-27T21:34:12.001Z,100833.00
2023-01-27T21:36:45.069Z,100833.25
2023-01-27T21:39:15.096Z,100828.19
2023-01-27T21:42:05.349Z,100831.06
2023-01-27T21:44:51.847Z,100830.41
2023-01-27T21:47:20.456Z,100844.25
2023-01-27T21:50:00.714Z,100830.72
2023-01-27T21:52:36.493Z,100833.81
2023-01-27T21:55:31.611Z,100835.69
2023-01-27T21:58:04.955Z,100830.22
2023-01-27T22:00:43.433Z,100830.50
2023-01-27T22:03:30.035Z,100834.66
2023-01-27T22:06:21.681Z,100834.91
2023-01-27T22:09:11.533Z,100835.47
2023-01-27T22:11:52.373Z,100827.81
2023-01-27T22:14:19.938Z,100844.41
2023-01-27T22:17:08.667Z,100836.41
2023-01-27T22:20:01.192Z,100841.53
2023-01-27T22:22:33.094Z,100835.16
2023-01-27T22:25:13.182Z,100842.97
2023-01-27T22:28:02.417Z,100840.75
2023-01-27T22:30:43.422Z,100836.94
2023-01-27T22:33:32.755Z,100833.84
2023-01-27T22:36:05.878Z,100837.41
2023-01-27T22:38:42.554Z,100845.41
2023-01-27T22:41:22.752Z,100836.16
2023-01-27T22:44:04.871Z,100841.50
2023-01-27T22:46:48.268Z,100856.75
2023-01-27T22:49:26.091Z,100850.22
2023-01-27T22:51:59.426Z,100854.69
2023-01-27T22:54:27.107Z,100853.13
2023-01-27T22:57:16.665Z,100857.56
2023-01-27T23:00:06.168Z,100864.81
2023-01-27T23:02:44.270Z,100858.47
2023-01-27T23:05:17.070Z,100851.53
2023-01-27T23:07:51.103Z,100850.31
2023-01-27T23:10:23.999Z,100852.72
2023-01-27T23:12:51.517Z,100855.28
2023-01-27T23:15:19.282Z,100849.94
2023-01-27T23:17:48.719Z,100834.72
2023-01-27T23:20:17.150Z,100838.41
2023-01-27T23:22:45.071Z,100840.03
2023-01-27T23:25:17.561Z,100843.81
2023-01-27T23:27:48.947Z,100831.53
2023-01-27T23:30:20.161Z,100834.13
2023-01-27T23:32:51.153Z,100841.28
2023-01-27T23:35:22.174Z,100829.25
2023-01-27T23:37:49.737Z,100832.75
2023-01-27T23:40:17.571Z,100835.31
2023-01-27T23:42:45.109Z,100844.75
2023-01-27T23:45:13.375Z,100847.66
2023-01-27T23:47:41.290Z,100846.78
2023-01-27T23:50:11.494Z,100842.84
2023-01-27T23:52:40.219Z,100842.44
2023-01-27T23:55:19.619Z,100858.34
2023-01-27T23:57:52.169Z,100843.38
